createdAt,value
2018-09-10T00:00:50.380Z,12.10
2018-09-10T00:01:50.577Z,12.05
2018-09-10T00:02:50.739Z,12.08
2018-09-10T00:03:50.915Z,11.95
2018-09-10T00:04:51.081Z,11.99
2018-09-10T00:05:51.315Z,12.04
2018-09-10T00:06:51.477Z,11.97
2018-09-10T00:07:51.657Z,11.99
2018-09-10T00:08:51.867Z,12.05
2018-09-10T00:09:52.002Z,12.03
2018-09-10T00:10:52.200Z,12.00
2018-09-10T00:11:52.399Z,11.97
2018-09-10T00:12:52.551Z,11.93
2018-09-10T00:13:53.669Z,11.91
2018-09-10T00:14:52.889Z,11.89
2018-09-10T00:15:53.083Z,11.76
2018-09-10T00:16:53.281Z,11.76
2018-09-10T00:17:53.463Z,11.82
2018-09-10T00:18:53.635Z,11.88
2018-09-10T00:19:53.827Z,11.84
2018-09-10T00:20:54.052Z,11.80
2018-09-10T00:21:54.206Z,11.82
2018-09-10T00:22:54.385Z,11.82
2018-09-10T00:23:54.574Z,11.73
2018-09-10T00:24:54.751Z,11.70
2018-09-10T00:25:54.953Z,11.69
2018-09-10T00:26:55.139Z,11.69
2018-09-10T00:27:55.316Z,11.69
2018-09-10T00:28:55.506Z,11.69
2018-09-10T00:29:55.686Z,11.71
2018-09-10T00:30:55.887Z,11.64
2018-09-10T00:31:56.037Z,11.64
2018-09-10T00:32:56.231Z,11.66
2018-09-10T00:33:56.402Z,11.61
2018-09-10T00:34:56.582Z,11.59
2018-09-10T00:35:56.800Z,11.58
2018-09-10T00:36:56.970Z,11.56
2018-09-10T00:37:57.158Z,11.58
2018-09-10T00:38:57.389Z,11.55
2018-09-10T00:39:57.509Z,11.55
2018-09-10T00:40:57.691Z,11.58
2018-09-10T00:41:57.870Z,11.56
2018-09-10T00:42:58.037Z,11.55
2018-09-10T00:43:58.286Z,11.52
2018-09-10T00:44:58.411Z,11.52
2018-09-10T00:45:58.589Z,11.58
2018-09-10T00:46:58.770Z,11.61
2018-09-10T00:47:58.948Z,11.59
2018-09-10T00:48:59.129Z,11.54
2018-09-10T00:49:59.312Z,11.46
2018-09-10T00:50:59.496Z,11.46
2018-09-10T00:51:59.678Z,11.48
2018-09-10T00:52:59.903Z,11.41
2018-09-10T00:54:00.075Z,11.36
2018-09-10T00:55:00.194Z,11.40
2018-09-10T00:56:00.374Z,11.51
2018-09-10T00:57:00.547Z,11.51
2018-09-10T00:58:00.735Z,11.34
2018-09-10T00:59:00.921Z,11.27
2018-09-10T01:00:01.100Z,11.37
2018-09-10T01:01:01.285Z,11.41
2018-09-10T01:02:01.464Z,11.36
2018-09-10T01:03:01.654Z,11.40
2018-09-10T01:04:01.830Z,11.33
2018-09-10T01:05:02.012Z,11.34
2018-09-10T01:06:02.200Z,11.12
2018-09-10T01:07:02.384Z,11.18
2018-09-10T01:08:02.551Z,11.18
2018-09-10T01:09:02.739Z,11.19
2018-09-10T01:10:02.942Z,11.05
2018-09-10T01:11:03.128Z,11.20
2018-09-10T01:12:03.302Z,11.05
2018-09-10T01:13:03.470Z,10.95
2018-09-10T01:14:03.644Z,11.05
2018-09-10T01:15:03.825Z,11.01
2018-09-10T01:16:04.001Z,11.04
2018-09-10T01:17:04.176Z,10.93
2018-09-10T01:18:04.365Z,10.97
2018-09-10T01:19:04.541Z,11.03
2018-09-10T01:20:04.725Z,10.98
2018-09-10T01:21:04.906Z,10.87
2018-09-10T01:22:05.086Z,10.90
2018-09-10T01:23:05.266Z,10.90
2018-09-10T01:24:05.445Z,10.93
2018-09-10T01:25:05.637Z,10.83
2018-09-10T01:26:05.856Z,10.87
2018-09-10T01:27:06.019Z,10.82
2018-09-10T01:28:06.173Z,10.79
2018-09-10T01:29:06.351Z,10.75
2018-09-10T01:30:06.565Z,10.65
2018-09-10T01:31:06.710Z,10.54
2018-09-10T01:32:06.892Z,10.55
2018-09-10T01:33:07.080Z,10.52
2018-09-10T01:34:07.275Z,10.60
2018-09-10T01:35:07.462Z,10.54
2018-09-10T01:36:07.625Z,10.48
2018-09-10T01:37:07.823Z,10.60
2018-09-10T01:38:07.980Z,10.62
2018-09-10T01:39:08.167Z,10.62
2018-09-10T01:40:08.358Z,10.64
2018-09-10T01:41:08.527Z,10.62
2018-09-10T01:42:08.707Z,10.65
2018-09-10T01:43:08.923Z,10.65
2018-09-10T01:44:09.085Z,10.65
2018-09-10T01:45:09.263Z,10.60
2018-09-10T01:46:09.438Z,10.60
2018-09-10T01:47:09.606Z,10.64
2018-09-10T01:48:09.793Z,10.62
2018-09-10T01:49:09.977Z,10.64
2018-09-10T01:50:10.163Z,10.67
2018-09-10T01:51:10.342Z,10.58
2018-09-10T01:52:10.572Z,10.57
2018-09-10T01:53:10.715Z,10.49
2018-09-10T01:54:10.927Z,10.55
2018-09-10T01:55:11.058Z,10.46
2018-09-10T01:56:11.254Z,10.57
2018-09-10T01:57:11.415Z,10.38
2018-09-10T01:58:11.613Z,10.39
2018-09-10T01:59:11.782Z,10.39
2018-09-10T02:00:11.961Z,10.41
2018-09-10T02:01:12.137Z,10.52
2018-09-10T02:02:12.333Z,10.39
2018-09-10T02:03:12.507Z,10.41
2018-09-10T02:04:12.692Z,10.36
2018-09-10T02:05:12.861Z,10.42
2018-09-10T02:06:13.042Z,10.48
2018-09-10T02:07:13.241Z,10.35
2018-09-10T02:08:13.418Z,10.35
2018-09-10T02:09:13.561Z,10.43
2018-09-10T02:10:13.741Z,10.39
2018-09-10T02:11:13.920Z,10.34
2018-09-10T02:12:14.111Z,10.35
2018-09-10T02:13:14.291Z,10.38
2018-09-10T02:14:14.519Z,10.31
2018-09-10T02:15:14.713Z,10.30
2018-09-10T02:16:14.893Z,10.35
2018-09-10T02:17:15.132Z,10.30
2018-09-10T02:18:15.252Z,10.34
2018-09-10T02:19:15.432Z,10.31
2018-09-10T02:20:15.619Z,10.35
2018-09-10T02:21:15.841Z,10.35
2018-09-10T02:22:16.000Z,10.30
2018-09-10T02:23:16.190Z,10.28
2018-09-10T02:24:16.332Z,10.34
2018-09-10T02:25:16.522Z,10.30
2018-09-10T02:26:16.696Z,10.38
2018-09-10T02:27:16.889Z,10.36
2018-09-10T02:28:17.072Z,10.31
2018-09-10T02:29:17.330Z,10.34
2018-09-10T02:30:17.492Z,10.30
2018-09-10T02:31:17.604Z,10.28
2018-09-10T02:32:17.786Z,10.30
2018-09-10T02:33:17.970Z,10.20
2018-09-10T02:34:18.150Z,10.26
2018-09-10T02:35:18.335Z,10.26
2018-09-10T02:36:18.505Z,10.28
2018-09-10T02:37:18.719Z,10.23
2018-09-10T02:38:18.880Z,10.20
2018-09-10T02:39:19.042Z,10.31
2018-09-10T02:40:19.227Z,10.30
2018-09-10T02:41:19.428Z,10.23
2018-09-10T02:42:19.624Z,10.23
2018-09-10T02:43:19.816Z,10.20
2018-09-10T02:44:19.986Z,10.20
2018-09-10T02:45:20.165Z,10.18
2018-09-10T02:46:20.329Z,10.17
2018-09-10T02:47:20.527Z,10.17
2018-09-10T02:48:20.687Z,10.16
2018-09-10T02:49:20.948Z,10.20
2018-09-10T02:50:21.046Z,10.21
2018-09-10T02:51:21.220Z,10.14
2018-09-10T02:52:21.421Z,10.16
2018-09-10T02:53:21.616Z,10.12
2018-09-10T02:54:21.788Z,10.12
2018-09-10T02:55:21.946Z,10.18
2018-09-10T02:56:22.123Z,10.12
2018-09-10T02:57:22.304Z,10.12
2018-09-10T02:58:22.489Z,10.16
2018-09-10T02:59:22.671Z,10.10
2018-09-10T03:00:22.849Z,10.09
2018-09-10T03:01:23.046Z,10.12
2018-09-10T03:02:23.276Z,10.09
2018-09-10T03:03:23.390Z,10.12
2018-09-10T03:04:23.577Z,10.08
2018-09-10T03:05:23.763Z,10.08
2018-09-10T03:06:23.940Z,10.05
2018-09-10T03:07:24.116Z,10.06
2018-09-10T03:08:24.301Z,10.05
2018-09-10T03:09:24.489Z,10.05
2018-09-10T03:10:24.678Z,9.96
2018-09-10T03:11:24.852Z,10.01
2018-09-10T03:12:25.038Z,10.05
2018-09-10T03:13:25.214Z,10.03
2018-09-10T03:14:25.399Z,9.96
2018-09-10T03:15:25.578Z,10.03
2018-09-10T03:16:25.760Z,10.10
2018-09-10T03:17:25.936Z,10.09
2018-09-10T03:18:26.137Z,10.02
2018-09-10T03:19:26.289Z,10.02
2018-09-10T03:20:26.495Z,9.93
2018-09-10T03:21:26.672Z,10.02
2018-09-10T03:22:26.850Z,9.91
2018-09-10T03:23:27.033Z,10.01
2018-09-10T03:24:27.215Z,9.96
2018-09-10T03:25:27.401Z,10.02
2018-09-10T03:26:27.582Z,10.01
2018-09-10T03:27:27.797Z,9.94
2018-09-10T03:28:27.956Z,9.88
2018-09-10T03:29:28.145Z,9.93
2018-09-10T03:30:28.321Z,9.96
2018-09-10T03:31:28.470Z,9.90
2018-09-10T03:32:28.648Z,9.91
2018-09-10T03:33:28.858Z,9.88
2018-09-10T03:34:28.991Z,9.84
2018-09-10T03:35:29.164Z,9.84
2018-09-10T03:36:29.373Z,9.87
2018-09-10T03:37:29.597Z,9.88
2018-09-10T03:38:29.723Z,9.83
2018-09-10T03:39:29.910Z,9.72
2018-09-10T03:40:30.095Z,9.75
2018-09-10T03:41:30.275Z,9.63
2018-09-10T03:42:30.449Z,9.63
2018-09-10T03:43:30.661Z,9.62
2018-09-10T03:44:30.841Z,9.54
2018-09-10T03:45:30.972Z,9.57
2018-09-10T03:46:31.158Z,9.41
2018-09-10T03:47:31.330Z,9.42
2018-09-10T03:48:31.507Z,9.42
2018-09-10T03:49:31.692Z,9.41
2018-09-10T03:50:31.876Z,9.41
2018-09-10T03:51:32.062Z,9.52
2018-09-10T03:52:32.218Z,9.42
2018-09-10T03:53:32.396Z,9.52
2018-09-10T03:54:32.567Z,9.41
2018-09-10T03:55:32.755Z,9.44
2018-09-10T03:56:32.937Z,9.50
2018-09-10T03:57:33.120Z,9.48
2018-09-10T03:58:33.289Z,9.42
2018-09-10T03:59:33.453Z,9.45
2018-09-10T04:00:33.632Z,9.40
2018-09-10T04:01:33.809Z,9.47
2018-09-10T04:02:33.986Z,9.50
2018-09-10T04:03:34.194Z,9.40
2018-09-10T04:04:34.745Z,9.44
2018-09-10T04:05:34.556Z,9.45
2018-09-10T04:06:34.742Z,9.44
2018-09-10T04:07:34.927Z,9.34
2018-09-10T04:08:35.109Z,9.36
2018-09-10T04:09:35.291Z,9.33
2018-09-10T04:10:35.466Z,9.27
2018-09-10T04:11:35.646Z,9.34
2018-09-10T04:12:35.832Z,9.34
2018-09-10T04:13:36.010Z,9.29
2018-09-10T04:14:36.193Z,9.23
2018-09-10T04:15:36.395Z,9.33
2018-09-10T04:16:36.560Z,9.30
2018-09-10T04:17:36.741Z,9.30
2018-09-10T04:18:36.925Z,9.30
2018-09-10T04:19:37.102Z,9.34
2018-09-10T04:20:37.283Z,9.26
2018-09-10T04:21:37.459Z,9.33
2018-09-10T04:22:37.636Z,9.40
2018-09-10T04:23:37.816Z,9.41
2018-09-10T04:24:38.009Z,9.44
2018-09-10T04:25:38.223Z,9.44
2018-09-10T04:26:38.406Z,9.26
2018-09-10T04:27:38.539Z,9.29
2018-09-10T04:28:38.799Z,9.30
2018-09-10T04:29:38.948Z,9.24
2018-09-10T04:30:39.085Z,9.32
2018-09-10T04:31:39.224Z,9.30
2018-09-10T04:32:39.427Z,9.23
2018-09-10T04:33:39.597Z,9.32
2018-09-10T04:34:39.755Z,9.36
2018-09-10T04:35:39.951Z,9.27
2018-09-10T04:36:40.140Z,9.26
2018-09-10T04:37:40.319Z,9.24
2018-09-10T04:38:40.502Z,9.16
2018-09-10T04:39:40.707Z,9.15
2018-09-10T04:40:40.979Z,9.15
2018-09-10T04:41:41.065Z,9.12
2018-09-10T04:42:41.262Z,9.12
2018-09-10T04:43:41.436Z,8.96
2018-09-10T04:44:41.760Z,8.90
2018-09-10T04:45:41.958Z,9.03
2018-09-10T04:46:41.965Z,8.99
2018-09-10T04:47:42.178Z,8.93
2018-09-10T04:48:42.386Z,9.04
2018-09-10T04:49:42.591Z,9.04
2018-09-10T04:50:42.739Z,9.15
2018-09-10T04:51:42.901Z,9.18
2018-09-10T04:52:43.062Z,9.22
2018-09-10T04:53:43.255Z,9.22
2018-09-10T04:54:43.415Z,9.19
2018-09-10T04:55:43.582Z,9.19
2018-09-10T04:56:43.775Z,9.26
2018-09-10T04:57:43.937Z,9.34
2018-09-10T04:58:44.128Z,9.30
2018-09-10T04:59:44.312Z,9.29
2018-09-10T05:00:44.492Z,9.27
2018-09-10T05:01:44.641Z,9.26
2018-09-10T05:02:44.838Z,9.23
2018-09-10T05:03:44.982Z,9.19
2018-09-10T05:04:45.188Z,9.19
2018-09-10T05:05:45.400Z,9.24
2018-09-10T05:06:45.602Z,9.33
2018-09-10T05:07:45.837Z,9.37
2018-09-10T05:08:45.985Z,9.27
2018-09-10T05:09:46.191Z,9.34
2018-09-10T05:10:46.367Z,9.40
2018-09-10T05:11:46.522Z,9.65
2018-09-10T05:12:46.704Z,9.73
2018-09-10T05:13:46.883Z,9.77
2018-09-10T05:14:47.060Z,9.78
2018-09-10T05:15:47.237Z,10.02
2018-09-10T05:16:47.427Z,10.17
2018-09-10T05:17:47.589Z,10.41
2018-09-10T05:18:47.838Z,10.48
2018-09-10T05:19:47.968Z,10.70
2018-09-10T05:20:48.158Z,10.76
2018-09-10T05:21:48.396Z,10.87
2018-09-10T05:22:48.520Z,10.79
2018-09-10T05:23:48.749Z,10.64
2018-09-10T05:24:48.907Z,10.48
2018-09-10T05:25:49.056Z,10.36
2018-09-10T05:26:49.229Z,10.34
2018-09-10T05:27:49.411Z,10.31
2018-09-10T05:28:49.586Z,10.41
2018-09-10T05:29:49.775Z,10.36
2018-09-10T05:30:49.956Z,10.65
2018-09-10T05:31:50.160Z,10.78
2018-09-10T05:32:50.347Z,10.78
2018-09-10T05:33:50.523Z,10.91
2018-09-10T05:34:50.703Z,11.04
2018-09-10T05:35:50.884Z,11.33
2018-09-10T05:36:51.082Z,11.54
2018-09-10T05:37:51.254Z,11.62
2018-09-10T05:38:51.456Z,11.99
2018-09-10T05:39:51.611Z,12.22
2018-09-10T05:40:51.805Z,12.07
2018-09-10T05:41:51.991Z,12.25
2018-09-10T05:42:52.183Z,12.23
2018-09-10T05:43:52.407Z,12.18
2018-09-10T05:44:52.538Z,12.14
2018-09-10T05:45:52.729Z,12.33
2018-09-10T05:46:52.971Z,12.26
2018-09-10T05:47:53.088Z,12.26
2018-09-10T05:48:53.284Z,12.44
2018-09-10T05:49:53.461Z,12.47
2018-09-10T05:50:53.639Z,12.38
2018-09-10T05:51:53.847Z,12.33
2018-09-10T05:52:54.019Z,12.44
2018-09-10T05:53:54.200Z,12.40
2018-09-10T05:54:54.389Z,12.38
2018-09-10T05:55:54.571Z,12.41
2018-09-10T05:56:54.755Z,12.54
2018-09-10T05:57:54.940Z,12.48
2018-09-10T05:58:55.118Z,12.54
2018-09-10T05:59:55.301Z,12.54
2018-09-10T06:00:55.511Z,12.50
2018-09-10T06:01:55.663Z,12.25
2018-09-10T06:02:55.847Z,12.18
2018-09-10T06:03:56.032Z,11.93
2018-09-10T06:04:56.215Z,12.07
2018-09-10T06:05:56.399Z,12.04
2018-09-10T06:06:56.593Z,11.96
2018-09-10T06:07:56.781Z,11.73
2018-09-10T06:08:56.971Z,11.74
2018-09-10T06:09:57.144Z,11.71
2018-09-10T06:10:57.330Z,11.77
2018-09-10T06:11:57.589Z,12.22
2018-09-10T06:12:57.700Z,12.32
2018-09-10T06:13:57.878Z,12.47
2018-09-10T06:14:58.049Z,12.71
2018-09-10T06:15:58.231Z,12.68
2018-09-10T06:16:58.428Z,12.50
2018-09-10T06:17:58.617Z,12.80
2018-09-10T06:18:58.803Z,13.39
2018-09-10T06:19:59.025Z,13.86
2018-09-10T06:20:59.190Z,14.21
2018-09-10T06:21:59.378Z,14.26
2018-09-10T06:22:59.551Z,14.82
2018-09-10T06:23:59.738Z,15.05
2018-09-10T06:24:59.929Z,15.48
2018-09-10T06:26:00.115Z,15.63
2018-09-10T06:27:00.299Z,15.50
2018-09-10T06:28:00.499Z,15.48
2018-09-10T06:29:00.666Z,15.78
2018-09-10T06:30:00.851Z,16.16
2018-09-10T06:31:01.049Z,16.51
2018-09-10T06:32:01.221Z,16.74
2018-09-10T06:33:01.419Z,16.84
2018-09-10T06:34:01.660Z,17.02
2018-09-10T06:35:01.774Z,17.04
2018-09-10T06:36:01.963Z,16.72
2018-09-10T06:37:02.174Z,16.65
2018-09-10T06:38:02.336Z,16.44
2018-09-10T06:39:02.531Z,16.32
2018-09-10T06:40:02.723Z,16.28
2018-09-10T06:41:02.915Z,16.51
2018-09-10T06:42:03.102Z,16.73
2018-09-10T06:43:03.291Z,16.97
2018-09-10T06:44:03.480Z,17.17
2018-09-10T06:45:03.680Z,17.25
2018-09-10T06:46:03.877Z,17.19
2018-09-10T06:47:04.102Z,17.13
2018-09-10T06:48:04.267Z,17.01
2018-09-10T06:49:04.515Z,16.80
2018-09-10T06:50:04.577Z,16.59
2018-09-10T06:51:04.765Z,16.61
2018-09-10T06:52:04.964Z,16.49
2018-09-10T06:53:05.150Z,16.52
2018-09-10T06:54:05.327Z,16.37
2018-09-10T06:55:05.538Z,15.70
2018-09-10T06:56:05.728Z,15.93
2018-09-10T06:57:05.924Z,16.06
2018-09-10T06:58:06.096Z,16.33
2018-09-10T06:59:06.288Z,16.39
2018-09-10T07:00:06.508Z,16.36
2018-09-10T07:01:06.656Z,16.51
2018-09-10T07:02:06.841Z,16.79
2018-09-10T07:03:07.033Z,16.80
2018-09-10T07:04:07.237Z,17.02
2018-09-10T07:05:07.415Z,17.02
2018-09-10T07:06:07.615Z,16.92
2018-09-10T07:07:07.789Z,16.61
2018-09-10T07:08:07.982Z,16.40
2018-09-10T07:09:08.203Z,16.10
2018-09-10T07:10:08.386Z,15.91
2018-09-10T07:11:08.592Z,15.69
2018-09-10T07:12:08.781Z,15.62
2018-09-10T07:13:08.960Z,15.66
2018-09-10T07:14:09.149Z,15.66
2018-09-10T07:15:09.321Z,15.62
2018-09-10T07:16:09.520Z,15.52
2018-09-10T07:17:09.708Z,15.50
2018-09-10T07:18:09.895Z,15.30
2018-09-10T07:19:10.099Z,15.19
2018-09-10T07:20:10.276Z,15.04
2018-09-10T07:21:10.465Z,14.90
2018-09-10T07:22:10.644Z,14.92
2018-09-10T07:23:10.823Z,14.82
2018-09-10T07:24:11.003Z,14.83
2018-09-10T07:25:11.196Z,14.83
2018-09-10T07:26:11.396Z,14.92
2018-09-10T07:27:11.563Z,14.93
2018-09-10T07:28:11.750Z,14.79
2018-09-10T07:29:11.941Z,14.86
2018-09-10T07:30:12.131Z,14.78
2018-09-10T07:31:12.312Z,14.69
2018-09-10T07:32:12.504Z,14.69
2018-09-10T07:33:12.692Z,14.67
2018-09-10T07:34:12.893Z,14.74
2018-09-10T07:35:13.072Z,14.78
2018-09-10T07:36:13.258Z,14.74
2018-09-10T07:37:13.422Z,14.92
2018-09-10T07:38:13.615Z,15.03
2018-09-10T07:39:13.800Z,15.22
2018-09-10T07:40:13.980Z,15.20
2018-09-10T07:41:14.171Z,15.50
2018-09-10T07:42:14.356Z,15.66
2018-09-10T07:43:14.540Z,15.66
2018-09-10T07:44:14.784Z,15.68
2018-09-10T07:45:14.980Z,15.83
2018-09-10T07:46:15.112Z,16.00
2018-09-10T07:47:15.304Z,15.99
2018-09-10T07:48:15.485Z,16.17
2018-09-10T07:49:15.674Z,16.21
2018-09-10T07:50:15.895Z,16.37
2018-09-10T07:51:16.053Z,16.58
2018-09-10T07:52:16.242Z,16.69
2018-09-10T07:53:16.439Z,16.84
2018-09-10T07:54:16.624Z,16.98
2018-09-10T07:55:16.810Z,17.24
2018-09-10T07:56:16.994Z,17.43
2018-09-10T07:57:17.191Z,17.72
2018-09-10T07:58:17.353Z,17.62
2018-09-10T07:59:17.560Z,17.27
2018-09-10T08:00:17.730Z,17.39
2018-09-10T08:01:17.918Z,17.17
2018-09-10T08:02:18.109Z,17.41
2018-09-10T08:03:18.284Z,17.66
2018-09-10T08:04:18.476Z,17.83
2018-09-10T08:05:18.653Z,17.83
2018-09-10T08:06:18.839Z,17.93
2018-09-10T08:07:19.037Z,17.86
2018-09-10T08:08:19.217Z,18.06
2018-09-10T08:09:19.456Z,18.08
2018-09-10T08:10:19.600Z,18.17
2018-09-10T08:11:19.790Z,18.15
2018-09-10T08:12:19.990Z,18.24
2018-09-10T08:13:20.179Z,18.24
2018-09-10T08:14:20.367Z,18.49
2018-09-10T08:15:20.544Z,18.60
2018-09-10T08:16:20.746Z,18.54
2018-09-10T08:17:20.935Z,18.83
2018-09-10T08:18:21.141Z,19.05
2018-09-10T08:19:21.291Z,19.12
2018-09-10T08:20:21.479Z,19.16
2018-09-10T08:21:21.668Z,19.41
2018-09-10T08:22:21.916Z,19.52
2018-09-10T08:23:22.107Z,19.64
2018-09-10T08:24:22.437Z,19.77
2018-09-10T08:25:22.498Z,19.67
2018-09-10T08:26:22.663Z,19.82
2018-09-10T08:27:22.857Z,19.92
2018-09-10T08:28:23.047Z,20.26
2018-09-10T08:29:23.230Z,20.39
2018-09-10T08:30:23.411Z,20.19
2018-09-10T08:31:23.578Z,20.26
2018-09-10T08:32:23.769Z,20.30
2018-09-10T08:33:23.946Z,20.07
2018-09-10T08:34:24.153Z,20.12
2018-09-10T08:35:24.381Z,20.27
2018-09-10T08:36:24.527Z,20.37
2018-09-10T08:37:24.711Z,20.41
2018-09-10T08:38:24.934Z,20.22
2018-09-10T08:39:25.101Z,20.37
2018-09-10T08:40:25.346Z,20.53
2018-09-10T08:41:25.467Z,20.32
2018-09-10T08:42:25.714Z,20.48
2018-09-10T08:43:25.849Z,20.26
2018-09-10T08:44:26.017Z,20.11
2018-09-10T08:45:26.228Z,20.00
2018-09-10T08:46:26.372Z,20.02
2018-09-10T08:47:26.584Z,19.96
2018-09-10T08:48:26.743Z,19.93
2018-09-10T08:49:26.981Z,19.96
2018-09-10T08:50:27.124Z,19.92
2018-09-10T08:51:27.282Z,19.89
2018-09-10T08:52:27.459Z,20.04
2018-09-10T08:53:27.646Z,20.07
2018-09-10T08:54:27.894Z,20.09
2018-09-10T08:55:28.145Z,20.25
2018-09-10T08:56:28.200Z,20.27
2018-09-10T08:57:28.406Z,20.11
2018-09-10T08:58:28.599Z,20.02
2018-09-10T08:59:28.762Z,19.79
2018-09-10T09:00:29.060Z,19.59
2018-09-10T09:01:29.158Z,19.60
2018-09-10T09:02:29.352Z,19.60
2018-09-10T09:03:29.520Z,19.56
2018-09-10T09:04:29.724Z,19.53
2018-09-10T09:05:29.884Z,19.56
2018-09-10T09:06:30.155Z,19.64
2018-09-10T09:07:30.260Z,19.60
2018-09-10T09:08:30.451Z,19.70
2018-09-10T09:09:30.647Z,19.63
2018-09-10T09:10:30.815Z,19.78
2018-09-10T09:11:31.009Z,19.82
2018-09-10T09:12:31.211Z,19.94
2018-09-10T09:13:31.406Z,20.05
2018-09-10T09:14:31.570Z,20.12
2018-09-10T09:15:31.748Z,20.18
2018-09-10T09:16:31.934Z,20.26
2018-09-10T09:17:32.176Z,20.34
2018-09-10T09:18:32.358Z,20.29
2018-09-10T09:19:32.447Z,20.52
2018-09-10T09:20:32.640Z,20.61
2018-09-10T09:21:32.855Z,20.75
2018-09-10T09:22:33.020Z,20.97
2018-09-10T09:23:33.274Z,21.04
2018-09-10T09:24:33.390Z,21.05
2018-09-10T09:25:33.558Z,20.90
2018-09-10T09:26:33.746Z,20.90
2018-09-10T09:27:33.965Z,20.85
2018-09-10T09:28:34.128Z,20.88
2018-09-10T09:29:34.332Z,21.01
2018-09-10T09:30:34.504Z,21.16
2018-09-10T09:31:34.711Z,21.22
2018-09-10T09:32:34.931Z,21.25
2018-09-10T09:33:35.156Z,21.28
2018-09-10T09:34:35.309Z,21.30
2018-09-10T09:35:35.451Z,21.38
2018-09-10T09:36:35.665Z,21.32
2018-09-10T09:37:35.825Z,21.56
2018-09-10T09:38:36.017Z,21.63
2018-09-10T09:39:36.207Z,21.59
2018-09-10T09:40:36.390Z,21.58
2018-09-10T09:41:36.584Z,21.44
2018-09-10T09:42:36.777Z,21.41
2018-09-10T09:43:36.975Z,21.47
2018-09-10T09:44:37.163Z,21.59
2018-09-10T09:45:37.359Z,21.55
2018-09-10T09:46:37.545Z,21.38
2018-09-10T09:47:37.736Z,21.41
2018-09-10T09:48:37.942Z,21.34
2018-09-10T09:49:38.105Z,21.30
2018-09-10T09:50:38.290Z,21.30
2018-09-10T09:51:38.507Z,21.38
2018-09-10T09:52:38.655Z,21.40
2018-09-10T09:53:38.851Z,21.56
2018-09-10T09:54:39.047Z,21.60
2018-09-10T09:55:39.219Z,21.59
2018-09-10T09:56:39.411Z,21.78
2018-09-10T09:57:39.629Z,21.97
2018-09-10T09:58:39.774Z,22.12
2018-09-10T09:59:39.972Z,22.31
2018-09-10T10:00:40.156Z,22.56
2018-09-10T10:01:40.340Z,22.71
2018-09-10T10:02:40.545Z,22.74
2018-09-10T10:03:40.741Z,22.81
2018-09-10T10:04:40.948Z,22.83
2018-09-10T10:05:41.098Z,22.81
2018-09-10T10:06:41.277Z,22.92
2018-09-10T10:07:41.483Z,23.08
2018-09-10T10:08:41.661Z,23.25
2018-09-10T10:09:41.929Z,23.13
2018-09-10T10:10:42.055Z,23.11
2018-09-10T10:11:42.379Z,23.17
2018-09-10T10:12:42.431Z,23.22
2018-09-10T10:13:42.633Z,23.34
2018-09-10T10:14:42.834Z,23.42
2018-09-10T10:15:43.085Z,23.42
2018-09-10T10:16:43.196Z,23.55
2018-09-10T10:17:43.399Z,23.60
2018-09-10T10:18:43.583Z,23.61
2018-09-10T10:19:43.794Z,23.55
2018-09-10T10:20:43.951Z,23.67
2018-09-10T10:21:44.174Z,23.76
2018-09-10T10:22:44.335Z,23.64
2018-09-10T10:23:44.509Z,23.73
2018-09-10T10:24:44.696Z,23.84
2018-09-10T10:25:44.909Z,23.73
2018-09-10T10:26:45.105Z,23.70
2018-09-10T10:27:45.293Z,23.85
2018-09-10T10:28:45.487Z,24.10
2018-09-10T10:29:45.676Z,24.37
2018-09-10T10:30:45.880Z,24.45
2018-09-10T10:31:46.084Z,24.52
2018-09-10T10:32:46.228Z,24.62
2018-09-10T10:33:46.457Z,24.60
2018-09-10T10:34:46.669Z,24.71
2018-09-10T10:35:46.859Z,24.91
2018-09-10T10:36:47.061Z,24.85
2018-09-10T10:37:47.279Z,24.90
2018-09-10T10:38:47.468Z,24.89
2018-09-10T10:39:47.662Z,24.84
2018-09-10T10:40:47.864Z,25.09
2018-09-10T10:41:48.051Z,25.34
2018-09-10T10:42:48.346Z,25.75
2018-09-10T10:43:48.432Z,25.90
2018-09-10T10:44:48.642Z,26.00
2018-09-10T10:45:48.800Z,26.23
2018-09-10T10:46:49.006Z,26.34
2018-09-10T10:47:49.234Z,26.33
2018-09-10T10:48:49.423Z,26.15
2018-09-10T10:49:49.636Z,26.03
2018-09-10T10:50:49.814Z,25.85
2018-09-10T10:51:50.083Z,25.92
2018-09-10T10:52:50.190Z,26.01
2018-09-10T10:53:50.408Z,26.12
2018-09-10T10:54:50.564Z,26.26
2018-09-10T10:55:50.748Z,26.26
2018-09-10T10:56:50.941Z,26.28
2018-09-10T10:57:51.195Z,26.19
2018-09-10T10:58:51.317Z,26.26
2018-09-10T10:59:51.513Z,26.33
2018-09-10T11:00:51.711Z,26.26
2018-09-10T11:01:51.871Z,26.39
2018-09-10T11:02:52.118Z,26.33
2018-09-10T11:03:52.258Z,26.46
2018-09-10T11:04:52.475Z,26.58
2018-09-10T11:05:52.647Z,26.64
2018-09-10T11:06:52.816Z,26.76
2018-09-10T11:07:52.989Z,26.82
2018-09-10T11:08:53.181Z,26.85
2018-09-10T11:09:53.364Z,26.71
2018-09-10T11:10:53.583Z,26.79
2018-09-10T11:11:53.743Z,26.53
2018-09-10T11:12:53.951Z,26.24
2018-09-10T11:13:54.145Z,26.39
2018-09-10T11:14:54.316Z,26.53
2018-09-10T11:15:54.514Z,26.51
2018-09-10T11:16:54.696Z,26.71
2018-09-10T11:17:54.872Z,26.65
2018-09-10T11:18:55.061Z,26.68
2018-09-10T11:19:55.249Z,26.67
2018-09-10T11:20:55.633Z,26.83
2018-09-10T11:21:55.591Z,26.89
2018-09-10T11:22:55.784Z,26.94
2018-09-10T11:23:55.971Z,26.94
2018-09-10T11:24:56.199Z,26.93
2018-09-10T11:25:56.412Z,27.07
2018-09-10T11:26:56.541Z,27.08
2018-09-10T11:27:56.742Z,26.95
2018-09-10T11:28:56.938Z,26.94
2018-09-10T11:29:57.091Z,26.94
2018-09-10T11:30:57.286Z,26.79
2018-09-10T11:31:57.505Z,26.82
2018-09-10T11:32:57.663Z,26.82
2018-09-10T11:33:57.881Z,26.90
2018-09-10T11:34:58.051Z,26.95
2018-09-10T11:35:58.243Z,27.15
2018-09-10T11:36:58.398Z,27.31
2018-09-10T11:37:58.590Z,27.35
2018-09-10T11:38:58.778Z,27.41
2018-09-10T11:39:58.999Z,27.44
2018-09-10T11:40:59.163Z,27.34
2018-09-10T11:41:59.376Z,27.35
2018-09-10T11:42:59.524Z,27.10
2018-09-10T11:43:59.711Z,26.95
2018-09-10T11:44:59.908Z,26.94
2018-09-10T11:46:00.093Z,26.97
2018-09-10T11:47:00.378Z,26.97
2018-09-10T11:48:00.488Z,26.97
2018-09-10T11:49:00.702Z,26.79
2018-09-10T11:50:00.852Z,26.86
2018-09-10T11:51:01.056Z,26.67
2018-09-10T11:52:01.270Z,26.68
2018-09-10T11:53:01.436Z,26.75
2018-09-10T11:54:01.663Z,26.68
2018-09-10T11:55:01.820Z,26.83
2018-09-10T11:56:01.982Z,26.76
2018-09-10T11:57:02.171Z,26.80
2018-09-10T11:58:02.379Z,26.80
2018-09-10T11:59:02.557Z,26.85
2018-09-10T12:00:02.777Z,26.98
2018-09-10T12:01:02.958Z,27.03
2018-09-10T12:02:03.215Z,26.89
2018-09-10T12:03:03.385Z,26.90
2018-09-10T12:04:03.547Z,26.88
2018-09-10T12:05:03.748Z,26.95
2018-09-10T12:06:03.935Z,26.90
2018-09-10T12:07:04.188Z,27.13
2018-09-10T12:08:04.304Z,27.12
2018-09-10T12:09:04.513Z,27.16
2018-09-10T12:10:04.660Z,27.19
2018-09-10T12:11:04.904Z,27.01
2018-09-10T12:12:05.033Z,27.04
2018-09-10T12:13:05.221Z,27.03
2018-09-10T12:14:05.405Z,27.08
2018-09-10T12:15:05.613Z,27.05
2018-09-10T12:16:05.872Z,26.95
2018-09-10T12:17:06.006Z,27.04
2018-09-10T12:18:06.216Z,27.16
2018-09-10T12:19:06.448Z,27.13
2018-09-10T12:20:06.604Z,26.97
2018-09-10T12:21:06.791Z,26.71
2018-09-10T12:22:06.977Z,26.80
2018-09-10T12:23:07.172Z,26.89
2018-09-10T12:24:07.391Z,26.83
2018-09-10T12:25:07.617Z,26.85
2018-09-10T12:26:07.758Z,26.83
2018-09-10T12:27:07.930Z,26.89
2018-09-10T12:28:08.198Z,26.94
2018-09-10T12:29:08.303Z,26.89
2018-09-10T12:30:08.513Z,26.95
2018-09-10T12:31:08.732Z,26.94
2018-09-10T12:32:09.048Z,27.03
2018-09-10T12:33:09.086Z,27.13
2018-09-10T12:34:09.273Z,27.20
2018-09-10T12:35:09.455Z,27.35
2018-09-10T12:36:09.632Z,27.50
2018-09-10T12:37:10.252Z,27.58
2018-09-10T12:38:10.075Z,27.60
2018-09-10T12:39:10.227Z,27.60
2018-09-10T12:40:10.478Z,27.54
2018-09-10T12:41:10.647Z,27.82
2018-09-10T12:42:10.826Z,27.85
2018-09-10T12:43:11.809Z,27.87
2018-09-10T12:44:11.168Z,28.09
2018-09-10T12:45:11.366Z,28.00
2018-09-10T12:46:11.536Z,28.13
2018-09-10T12:47:11.896Z,28.16
2018-09-10T12:48:11.967Z,28.31
2018-09-10T12:49:12.338Z,28.06
2018-09-10T12:50:12.350Z,28.28
2018-09-10T12:51:12.818Z,28.03
2018-09-10T12:52:12.920Z,27.68
2018-09-10T12:53:12.969Z,27.52
2018-09-10T12:54:13.149Z,27.64
2018-09-10T12:55:13.389Z,27.63
2018-09-10T12:56:13.687Z,27.61
2018-09-10T12:57:13.759Z,27.45
2018-09-10T12:58:13.907Z,27.34
2018-09-10T12:59:14.696Z,27.37